sensor_id;sensor_type;location;lat;lon;timestamp;pressure;altitude;pressure_sealevel;temperature;humidity
18988;BME280;5494;51.796;10.952;2023-04-25T00:00:45;98062.31;;;8.21;75.05
18988;BME280;5494;51.796;10.952;2023-04-25T00:03:13;98061.63;;;8.17;75.63
18988;BME280;5494;51.796;10.952;2023-04-25T00:05:41;98058.31;;;8.15;76.66
18988;BME280;5494;51.796;10.952;2023-04-25T00:08:11;98050.19;;;8.06;77.41
18988;BME280;5494;51.796;10.952;2023-04-25T00:10:39;98049.69;;;8.15;77.29
18988;BME280;5494;51.796;10.952;2023-04-25T00:13:07;98049.28;;;8.07;77.90
18988;BME280;5494;51.796;10.952;2023-04-25T00:15:36;98047.97;;;8.00;78.69
18988;BME280;5494;51.796;10.952;2023-04-25T00:18:05;98058.38;;;7.82;80.21
18988;BME280;5494;51.796;10.952;2023-04-25T00:20:33;98059.75;;;7.74;81.12
18988;BME280;5494;51.796;10.952;2023-04-25T00:23:03;98075.56;;;7.68;81.60
18988;BME280;5494;51.796;10.952;2023-04-25T00:25:31;98066.56;;;7.59;81.52
18988;BME280;5494;51.796;10.952;2023-04-25T00:27:59;98058.81;;;7.59;81.59
18988;BME280;5494;51.796;10.952;2023-04-25T00:30:27;98053.84;;;7.55;81.84
18988;BME280;5494;51.796;10.952;2023-04-25T00:55:26;98052.91;;;7.40;83.39
18988;BME280;5494;51.796;10.952;2023-04-25T00:58:14;98059.28;;;7.50;83.27
18988;BME280;5494;51.796;10.952;2023-04-25T01:01:02;98056.28;;;7.42;83.20
18988;BME280;5494;51.796;10.952;2023-04-25T01:03:53;98064.69;;;7.30;84.08
18988;BME280;5494;51.796;10.952;2023-04-25T01:06:42;98068.69;;;7.35;83.80
18988;BME280;5494;51.796;10.952;2023-04-25T01:09:30;98075.47;;;7.38;83.12
18988;BME280;5494;51.796;10.952;2023-04-25T01:12:21;98071.97;;;7.39;83.24
18988;BME280;5494;51.796;10.952;2023-04-25T01:15:10;98073.03;;;7.35;83.50
18988;BME280;5494;51.796;10.952;2023-04-25T01:17:58;98074.63;;;7.37;83.68
18988;BME280;5494;51.796;10.952;2023-04-25T01:20:51;98081.09;;;7.29;83.88
18988;BME280;5494;51.796;10.952;2023-04-25T01:23:42;98075.09;;;7.28;84.67
18988;BME280;5494;51.796;10.952;2023-04-25T01:26:31;98081.34;;;7.40;84.09
18988;BME280;5494;51.796;10.952;2023-04-25T01:29:20;98080.13;;;7.47;83.89
18988;BME280;5494;51.796;10.952;2023-04-25T01:32:09;98076.81;;;7.61;83.00
18988;BME280;5494;51.796;10.952;2023-04-25T01:34:58;98078.88;;;7.54;82.76
18988;BME280;5494;51.796;10.952;2023-04-25T01:37:47;98076.91;;;7.59;83.17
18988;BME280;5494;51.796;10.952;2023-04-25T01:40:40;98085.41;;;7.45;83.81
18988;BME280;5494;51.796;10.952;2023-04-25T01:43:29;98077.19;;;7.37;84.71
18988;BME280;5494;51.796;10.952;2023-04-25T01:46:17;98080.44;;;7.41;84.84
18988;BME280;5494;51.796;10.952;2023-04-25T01:49:05;98076.19;;;7.40;84.77
18988;BME280;5494;51.796;10.952;2023-04-25T01:51:54;98072.69;;;7.41;84.88
18988;BME280;5494;51.796;10.952;2023-04-25T01:54:43;98073.38;;;7.44;85.07
18988;BME280;5494;51.796;10.952;2023-04-25T01:57:34;98078.19;;;7.35;85.56
18988;BME280;5494;51.796;10.952;2023-04-25T02:00:23;98082.31;;;7.39;85.18
18988;BME280;5494;51.796;10.952;2023-04-25T02:03:11;98067.59;;;7.24;85.59
18988;BME280;5494;51.796;10.952;2023-04-25T02:06:00;98060.75;;;7.23;85.31
18988;BME280;5494;51.796;10.952;2023-04-25T02:08:51;98056.16;;;7.12;86.45
18988;BME280;5494;51.796;10.952;2023-04-25T02:11:39;98049.69;;;7.03;87.12
18988;BME280;5494;51.796;10.952;2023-04-25T02:14:47;98060.09;;;7.02;87.34
18988;BME280;5494;51.796;10.952;2023-04-25T02:17:44;98057.59;;;7.00;88.11
18988;BME280;5494;51.796;10.952;2023-04-25T02:20:33;98057.38;;;7.05;88.13
18988;BME280;5494;51.796;10.952;2023-04-25T02:23:21;98059.53;;;7.12;88.32
18988;BME280;5494;51.796;10.952;2023-04-25T02:26:10;98071.22;;;7.20;87.33
18988;BME280;5494;51.796;10.952;2023-04-25T02:29:01;98074.25;;;7.28;86.95
18988;BME280;5494;51.796;10.952;2023-04-25T02:31:50;98070.09;;;7.25;87.60
18988;BME280;5494;51.796;10.952;2023-04-25T02:34:39;98070.38;;;7.19;87.95
18988;BME280;5494;51.796;10.952;2023-04-25T02:37:27;98067.00;;;7.19;88.35
18988;BME280;5494;51.796;10.952;2023-04-25T02:40:15;98060.16;;;7.18;89.07
18988;BME280;5494;51.796;10.952;2023-04-25T02:43:03;98060.28;;;7.15;89.14
18988;BME280;5494;51.796;10.952;2023-04-25T02:45:52;98060.22;;;7.16;89.14
18988;BME280;5494;51.796;10.952;2023-04-25T02:48:41;98066.31;;;7.15;89.91
18988;BME280;5494;51.796;10.952;2023-04-25T02:51:30;98068.88;;;7.15;89.96
18988;BME280;5494;51.796;10.952;2023-04-25T02:54:19;98075.13;;;7.11;91.03
18988;BME280;5494;51.796;10.952;2023-04-25T02:57:08;98062.75;;;7.00;91.99
18988;BME280;5494;51.796;10.952;2023-04-25T02:59:57;98063.72;;;7.15;91.70
18988;BME280;5494;51.796;10.952;2023-04-25T03:02:46;98064.69;;;7.12;91.78
18988;BME280;5494;51.796;10.952;2023-04-25T03:05:36;98071.78;;;7.09;92.35
18988;BME280;5494;51.796;10.952;2023-04-25T03:08:24;98074.50;;;7.06;92.78
18988;BME280;5494;51.796;10.952;2023-04-25T03:11:16;98063.19;;;7.08;92.76
18988;BME280;5494;51.796;10.952;2023-04-25T03:14:04;98061.38;;;6.93;93.37
18988;BME280;5494;51.796;10.952;2023-04-25T03:16:53;98056.53;;;6.87;95.03
18988;BME280;5494;51.796;10.952;2023-04-25T03:19:42;98062.53;;;6.88;95.13
18988;BME280;5494;51.796;10.952;2023-04-25T03:22:31;98054.78;;;6.88;95.29
18988;BME280;5494;51.796;10.952;2023-04-25T03:25:20;98067.41;;;6.94;94.96
18988;BME280;5494;51.796;10.952;2023-04-25T03:28:08;98067.84;;;7.02;94.51
18988;BME280;5494;51.796;10.952;2023-04-25T03:30:57;98067.59;;;7.06;94.94
18988;BME280;5494;51.796;10.952;2023-04-25T03:33:45;98064.28;;;7.04;94.66
18988;BME280;5494;51.796;10.952;2023-04-25T03:36:34;98069.22;;;7.09;94.46
18988;BME280;5494;51.796;10.952;2023-04-25T03:39:23;98070.19;;;7.06;95.27
18988;BME280;5494;51.796;10.952;2023-04-25T03:42:12;98076.19;;;7.07;95.08
18988;BME280;5494;51.796;10.952;2023-04-25T03:45:05;98082.78;;;7.12;94.88
18988;BME280;5494;51.796;10.952;2023-04-25T03:47:54;98086.50;;;7.24;94.77
18988;BME280;5494;51.796;10.952;2023-04-25T03:50:42;98088.19;;;7.25;94.91
18988;BME280;5494;51.796;10.952;2023-04-25T03:53:30;98090.19;;;7.36;94.39
18988;BME280;5494;51.796;10.952;2023-04-25T03:56:55;98089.25;;;7.70;92.80
18988;BME280;5494;51.796;10.952;2023-04-25T03:59:47;98085.97;;;7.50;93.80
18988;BME280;5494;51.796;10.952;2023-04-25T04:02:35;98094.69;;;7.65;93.75
18988;BME280;5494;51.796;10.952;2023-04-25T04:05:25;98101.63;;;7.80;92.15
18988;BME280;5494;51.796;10.952;2023-04-25T04:08:16;98097.72;;;7.40;94.53
18988;BME280;5494;51.796;10.952;2023-04-25T04:11:04;98104.34;;;7.29;96.22
18988;BME280;5494;51.796;10.952;2023-04-25T04:13:54;98103.78;;;7.24;97.26
18988;BME280;5494;51.796;10.952;2023-04-25T04:16:42;98105.44;;;7.25;98.11
18988;BME280;5494;51.796;10.952;2023-04-25T04:19:31;98096.47;;;7.32;98.27
18988;BME280;5494;51.796;10.952;2023-04-25T04:22:26;98100.63;;;7.34;98.42
18988;BME280;5494;51.796;10.952;2023-04-25T04:25:18;98101.13;;;7.41;98.83
18988;BME280;5494;51.796;10.952;2023-04-25T04:28:32;98113.91;;;7.44;98.52
18988;BME280;5494;51.796;10.952;2023-04-25T04:31:27;98114.94;;;7.57;98.53
18988;BME280;5494;51.796;10.952;2023-04-25T04:34:17;98111.84;;;7.50;98.62
18988;BME280;5494;51.796;10.952;2023-04-25T04:37:06;98108.16;;;7.55;99.50
18988;BME280;5494;51.796;10.952;2023-04-25T04:39:55;98114.34;;;7.52;100.00
18988;BME280;5494;51.796;10.952;2023-04-25T04:42:59;98117.09;;;7.49;100.00
18988;BME280;5494;51.796;10.952;2023-04-25T04:46:09;98121.94;;;7.55;100.00
18988;BME280;5494;51.796;10.952;2023-04-25T04:49:33;98132.91;;;7.60;99.72
18988;BME280;5494;51.796;10.952;2023-04-25T04:52:39;98133.59;;;7.79;98.28
18988;BME280;5494;51.796;10.952;2023-04-25T04:55:53;98136.00;;;7.67;97.52
18988;BME280;5494;51.796;10.952;2023-04-25T04:58:59;98139.59;;;7.80;97.46
18988;BME280;5494;51.796;10.952;2023-04-25T05:02:08;98139.94;;;7.74;97.25
18988;BME280;5494;51.796;10.952;2023-04-25T05:05:09;98145.69;;;7.79;95.80
18988;BME280;5494;51.796;10.952;2023-04-25T05:08:19;98153.03;;;7.86;95.15
18988;BME280;5494;51.796;10.952;2023-04-25T05:11:25;98147.00;;;7.70;97.22
18988;BME280;5494;51.796;10.952;2023-04-25T05:14:31;98159.66;;;7.59;100.00
18988;BME280;5494;51.796;10.952;2023-04-25T05:17:32;98182.03;;;7.60;100.00
18988;BME280;5494;51.796;10.952;2023-04-25T05:20:46;98189.66;;;7.46;100.00
18988;BME280;5494;51.796;10.952;2023-04-25T05:23:53;98196.97;;;7.21;100.00
18988;BME280;5494;51.796;10.952;2023-04-25T05:27:00;98200.22;;;7.07;100.00
18988;BME280;5494;51.796;10.952;2023-04-25T05:30:10;98199.84;;;6.97;100.00
18988;BME280;5494;51.796;10.952;2023-04-25T05:33:23;98196.19;;;6.84;100.00
18988;BME280;5494;51.796;10.952;2023-04-25T05:36:13;98202.63;;;6.76;100.00
18988;BME280;5494;51.796;10.952;2023-04-25T05:39:01;98216.13;;;6.63;100.00
18988;BME280;5494;51.796;10.952;2023-04-25T05:42:11;98216.88;;;6.65;100.00
18988;BME280;5494;51.796;10.952;2023-04-25T05:45:20;98220.25;;;6.49;100.00
18988;BME280;5494;51.796;10.952;2023-04-25T05:48:27;98220.00;;;6.36;100.00
18988;BME280;5494;51.796;10.952;2023-04-25T05:50:59;98227.66;;;6.38;100.00
18988;BME280;5494;51.796;10.952;2023-04-25T05:53:48;98241.75;;;6.30;100.00
18988;BME280;5494;51.796;10.952;2023-04-25T05:56:16;98241.66;;;6.32;100.00
18988;BME280;5494;51.796;10.952;2023-04-25T05:58:47;98242.94;;;6.42;100.00
18988;BME280;5494;51.796;10.952;2023-04-25T06:01:15;98236.31;;;6.55;100.00
18988;BME280;5494;51.796;10.952;2023-04-25T06:03:44;98236.97;;;6.59;100.00
18988;BME280;5494;51.796;10.952;2023-04-25T06:06:12;98236.28;;;6.74;100.00
18988;BME280;5494;51.796;10.952;2023-04-25T06:08:40;98235.78;;;7.02;100.00
18988;BME280;5494;51.796;10.952;2023-04-25T06:11:12;98236.88;;;7.67;100.00
18988;BME280;5494;51.796;10.952;2023-04-25T06:13:40;98234.56;;;8.26;100.00
18988;BME280;5494;51.796;10.952;2023-04-25T06:16:08;98230.59;;;8.52;100.00
18988;BME280;5494;51.796;10.952;2023-04-25T06:18:37;98228.53;;;8.43;100.00
18988;BME280;5494;51.796;10.952;2023-04-25T06:21:05;98238.78;;;8.45;100.00
18988;BME280;5494;51.796;10.952;2023-04-25T06:23:33;98236.88;;;8.80;100.00
18988;BME280;5494;51.796;10.952;2023-04-25T06:26:04;98242.97;;;8.79;95.14
18988;BME280;5494;51.796;10.952;2023-04-25T06:28:35;98245.63;;;8.93;93.69
18988;BME280;5494;51.796;10.952;2023-04-25T06:31:03;98248.56;;;8.87;94.47
18988;BME280;5494;51.796;10.952;2023-04-25T06:33:32;98257.84;;;8.91;94.35
18988;BME280;5494;51.796;10.952;2023-04-25T06:36:00;98256.53;;;8.84;93.88
18988;BME280;5494;51.796;10.952;2023-04-25T06:38:28;98255.28;;;8.91;92.76
18988;BME280;5494;51.796;10.952;2023-04-25T06:40:57;98251.34;;;8.68;91.72
18988;BME280;5494;51.796;10.952;2023-04-25T06:43:29;98245.66;;;8.77;91.32
18988;BME280;5494;51.796;10.952;2023-04-25T06:46:10;98255.00;;;8.95;91.00
18988;BME280;5494;51.796;10.952;2023-04-25T06:48:43;98245.91;;;8.88;90.76
18988;BME280;5494;51.796;10.952;2023-04-25T06:51:12;98244.97;;;9.05;90.09
18988;BME280;5494;51.796;10.952;2023-04-25T06:53:43;98252.88;;;9.18;86.48
18988;BME280;5494;51.796;10.952;2023-04-25T06:56:22;98253.22;;;9.41;86.61
18988;BME280;5494;51.796;10.952;2023-04-25T06:59:00;98248.88;;;10.14;83.40
18988;BME280;5494;51.796;10.952;2023-04-25T07:01:32;98245.50;;;10.69;76.18
18988;BME280;5494;51.796;10.952;2023-04-25T07:04:04;98243.44;;;11.01;73.57
18988;BME280;5494;51.796;10.952;2023-04-25T07:06:35;98249.50;;;11.41;67.35
18988;BME280;5494;51.796;10.952;2023-04-25T07:09:04;98235.63;;;11.93;64.91
18988;BME280;5494;51.796;10.952;2023-04-25T07:11:33;98235.66;;;12.91;60.23
18988;BME280;5494;51.796;10.952;2023-04-25T07:14:01;98244.81;;;12.96;57.78
18988;BME280;5494;51.796;10.952;2023-04-25T07:16:29;98242.00;;;13.23;52.69
18988;BME280;5494;51.796;10.952;2023-04-25T07:18:59;98250.94;;;13.32;53.83
18988;BME280;5494;51.796;10.952;2023-04-25T07:21:28;98254.28;;;12.74;53.57
18988;BME280;5494;51.796;10.952;2023-04-25T07:24:00;98255.00;;;12.76;55.50
18988;BME280;5494;51.796;10.952;2023-04-25T07:26:33;98260.19;;;13.60;53.35
18988;BME280;5494;51.796;10.952;2023-04-25T07:29:20;98262.59;;;13.15;52.21
18988;BME280;5494;51.796;10.952;2023-04-25T07:31:48;98265.78;;;12.95;53.27
18988;BME280;5494;51.796;10.952;2023-04-25T07:34:17;98265.44;;;12.76;55.07
18988;BME280;5494;51.796;10.952;2023-04-25T07:36:45;98264.94;;;12.71;54.83
18988;BME280;5494;51.796;10.952;2023-04-25T07:39:13;98270.72;;;12.87;56.23
18988;BME280;5494;51.796;10.952;2023-04-25T07:41:41;98254.94;;;12.65;55.04
18988;BME280;5494;51.796;10.952;2023-04-25T07:44:14;98268.56;;;13.05;54.62
18988;BME280;5494;51.796;10.952;2023-04-25T07:46:43;98262.22;;;13.78;53.59
18988;BME280;5494;51.796;10.952;2023-04-25T07:49:11;98274.63;;;13.88;51.61
18988;BME280;5494;51.796;10.952;2023-04-25T07:51:44;98276.19;;;13.55;49.15
18988;BME280;5494;51.796;10.952;2023-04-25T07:54:15;98270.91;;;13.44;49.33
18988;BME280;5494;51.796;10.952;2023-04-25T07:56:48;98283.72;;;12.99;49.95
18988;BME280;5494;51.796;10.952;2023-04-25T07:59:23;98273.59;;;12.58;50.78
18988;BME280;5494;51.796;10.952;2023-04-25T08:01:51;98287.06;;;12.52;52.54
18988;BME280;5494;51.796;10.952;2023-04-25T08:04:19;98296.06;;;12.48;53.33
18988;BME280;5494;51.796;10.952;2023-04-25T08:07:00;98302.50;;;12.55;53.39
18988;BME280;5494;51.796;10.952;2023-04-25T08:09:32;98304.59;;;11.87;51.71
18988;BME280;5494;51.796;10.952;2023-04-25T08:12:04;98305.78;;;11.69;52.45
18988;BME280;5494;51.796;10.952;2023-04-25T08:14:33;98304.28;;;11.52;53.55
18988;BME280;5494;51.796;10.952;2023-04-25T08:17:05;98311.69;;;11.58;54.64
18988;BME280;5494;51.796;10.952;2023-04-25T08:19:38;98301.78;;;11.77;53.78
18988;BME280;5494;51.796;10.952;2023-04-25T08:22:13;98313.34;;;11.86;54.16
18988;BME280;5494;51.796;10.952;2023-04-25T08:24:50;98311.41;;;12.15;53.07
18988;BME280;5494;51.796;10.952;2023-04-25T08:27:18;98310.63;;;12.63;50.99
18988;BME280;5494;51.796;10.952;2023-04-25T08:29:47;98308.19;;;12.73;49.06
18988;BME280;5494;51.796;10.952;2023-04-25T08:32:16;98321.75;;;12.91;48.27
18988;BME280;5494;51.796;10.952;2023-04-25T08:34:58;98312.50;;;13.58;46.40
18988;BME280;5494;51.796;10.952;2023-04-25T08:37:28;98328.56;;;13.65;45.45
18988;BME280;5494;51.796;10.952;2023-04-25T08:40:00;98321.75;;;13.27;45.50
18988;BME280;5494;51.796;10.952;2023-04-25T08:42:52;98329.63;;;12.53;48.56
18988;BME280;5494;51.796;10.952;2023-04-25T08:45:21;98328.81;;;12.27;50.97
18988;BME280;5494;51.796;10.952;2023-04-25T08:47:51;98338.81;;;12.08;51.48
18988;BME280;5494;51.796;10.952;2023-04-25T08:50:23;98345.19;;;12.16;50.20
18988;BME280;5494;51.796;10.952;2023-04-25T08:52:57;98343.19;;;12.20;48.90
18988;BME280;5494;51.796;10.952;2023-04-25T08:55:29;98355.63;;;11.90;47.70
18988;BME280;5494;51.796;10.952;2023-04-25T08:58:00;98357.31;;;12.03;46.75
18988;BME280;5494;51.796;10.952;2023-04-25T09:00:29;98355.69;;;12.02;46.42
18988;BME280;5494;51.796;10.952;2023-04-25T09:02:58;98357.44;;;12.02;46.47
18988;BME280;5494;51.796;10.952;2023-04-25T09:05:31;98367.03;;;12.01;46.84
18988;BME280;5494;51.796;10.952;2023-04-25T09:08:02;98369.84;;;12.11;47.66
18988;BME280;5494;51.796;10.952;2023-04-25T09:10:30;98366.47;;;11.83;47.70
18988;BME280;5494;51.796;10.952;2023-04-25T09:13:05;98373.50;;;11.28;48.90
18988;BME280;5494;51.796;10.952;2023-04-25T09:15:50;98365.22;;;11.35;50.02
18988;BME280;5494;51.796;10.952;2023-04-25T09:18:33;98373.97;;;11.34;51.07
18988;BME280;5494;51.796;10.952;2023-04-25T09:21:07;98377.97;;;11.40;50.54
18988;BME280;5494;51.796;10.952;2023-04-25T09:23:46;98392.13;;;11.22;51.40
18988;BME280;5494;51.796;10.952;2023-04-25T09:26:19;98379.59;;;11.41;50.51
18988;BME280;5494;51.796;10.952;2023-04-25T09:28:48;98391.06;;;11.38;49.27
18988;BME280;5494;51.796;10.952;2023-04-25T09:31:23;98392.88;;;11.51;49.05
18988;BME280;5494;51.796;10.952;2023-04-25T09:33:59;98392.66;;;11.95;47.55
18988;BME280;5494;51.796;10.952;2023-04-25T09:36:37;98393.00;;;12.66;45.30
18988;BME280;5494;51.796;10.952;2023-04-25T09:39:32;98391.38;;;13.98;43.78
18988;BME280;5494;51.796;10.952;2023-04-25T09:42:09;98392.56;;;14.29;40.38
18988;BME280;5494;51.796;10.952;2023-04-25T09:44:43;98401.00;;;14.33;39.46
18988;BME280;5494;51.796;10.952;2023-04-25T09:47:14;98399.66;;;13.81;40.73
18988;BME280;5494;51.796;10.952;2023-04-25T09:49:44;98404.66;;;13.11;42.95
18988;BME280;5494;51.796;10.952;2023-04-25T09:52:19;98408.25;;;12.34;44.42
18988;BME280;5494;51.796;10.952;2023-04-25T09:55:07;98409.47;;;11.62;43.99
18988;BME280;5494;51.796;10.952;2023-04-25T09:57:36;98421.41;;;11.11;45.37
18988;BME280;5494;51.796;10.952;2023-04-25T10:00:08;98412.41;;;10.88;45.00
18988;BME280;5494;51.796;10.952;2023-04-25T10:02:45;98423.19;;;10.82;45.09
18988;BME280;5494;51.796;10.952;2023-04-25T10:05:37;98429.50;;;10.64;44.99
18988;BME280;5494;51.796;10.952;2023-04-25T10:08:07;98431.38;;;10.90;45.10
18988;BME280;5494;51.796;10.952;2023-04-25T10:10:38;98435.63;;;11.05;44.96
18988;BME280;5494;51.796;10.952;2023-04-25T10:13:08;98441.00;;;11.31;45.34
18988;BME280;5494;51.796;10.952;2023-04-25T10:15:36;98441.09;;;11.56;45.67
18988;BME280;5494;51.796;10.952;2023-04-25T10:18:07;98443.13;;;11.65;47.22
18988;BME280;5494;51.796;10.952;2023-04-25T10:20:35;98440.47;;;11.53;46.92
18988;BME280;5494;51.796;10.952;2023-04-25T10:23:12;98454.78;;;11.04;47.28
18988;BME280;5494;51.796;10.952;2023-04-25T10:25:43;98449.19;;;10.96;47.79
18988;BME280;5494;51.796;10.952;2023-04-25T10:28:11;98446.41;;;10.85;47.87
18988;BME280;5494;51.796;10.952;2023-04-25T10:30:57;98449.19;;;10.82;47.29
18988;BME280;5494;51.796;10.952;2023-04-25T10:33:36;98450.19;;;10.65;46.25
18988;BME280;5494;51.796;10.952;2023-04-25T10:36:13;98461.06;;;10.72;45.38
18988;BME280;5494;51.796;10.952;2023-04-25T10:38:44;98453.25;;;10.72;44.69
18988;BME280;5494;51.796;10.952;2023-04-25T10:41:14;98450.84;;;10.55;44.26
18988;BME280;5494;51.796;10.952;2023-04-25T10:43:43;98459.94;;;10.62;44.54
18988;BME280;5494;51.796;10.952;2023-04-25T10:46:17;98454.63;;;10.49;42.65
18988;BME280;5494;51.796;10.952;2023-04-25T10:48:48;98462.72;;;10.73;42.65
18988;BME280;5494;51.796;10.952;2023-04-25T10:51:20;98457.53;;;10.87;40.06
18988;BME280;5494;51.796;10.952;2023-04-25T10:54:00;98466.28;;;11.00;40.38
18988;BME280;5494;51.796;10.952;2023-04-25T10:56:37;98460.88;;;11.18;39.97
18988;BME280;5494;51.796;10.952;2023-04-25T10:59:08;98463.41;;;10.91;40.46
18988;BME280;5494;51.796;10.952;2023-04-25T11:01:39;98464.50;;;11.01;40.79
18988;BME280;5494;51.796;10.952;2023-04-25T11:04:20;98459.31;;;11.15;40.63
18988;BME280;5494;51.796;10.952;2023-04-25T11:07:09;98454.50;;;11.50;39.66
18988;BME280;5494;51.796;10.952;2023-04-25T11:09:40;98447.59;;;11.63;39.69
18988;BME280;5494;51.796;10.952;2023-04-25T11:12:10;98450.94;;;11.65;39.60
18988;BME280;5494;51.796;10.952;2023-04-25T11:14:39;98461.78;;;12.13;39.35
18988;BME280;5494;51.796;10.952;2023-04-25T11:17:08;98457.13;;;11.91;39.62
18988;BME280;5494;51.796;10.952;2023-04-25T11:19:37;98458.69;;;11.94;39.69
18988;BME280;5494;51.796;10.952;2023-04-25T11:22:05;98464.41;;;11.86;39.34
18988;BME280;5494;51.796;10.952;2023-04-25T11:24:35;98475.88;;;11.55;39.58
18988;BME280;5494;51.796;10.952;2023-04-25T11:27:05;98464.59;;;11.28;40.05
18988;BME280;5494;51.796;10.952;2023-04-25T11:29:35;98475.66;;;11.17;41.05
18988;BME280;5494;51.796;10.952;2023-04-25T11:32:03;98469.78;;;11.28;41.68
18988;BME280;5494;51.796;10.952;2023-04-25T11:34:33;98464.03;;;11.09;41.77
18988;BME280;5494;51.796;10.952;2023-04-25T11:37:02;98461.66;;;11.05;43.43
18988;BME280;5494;51.796;10.952;2023-04-25T11:39:31;98457.84;;;11.11;41.84
18988;BME280;5494;51.796;10.952;2023-04-25T11:41:59;98474.53;;;11.07;40.70
18988;BME280;5494;51.796;10.952;2023-04-25T11:44:29;98469.34;;;10.93;40.13
18988;BME280;5494;51.796;10.952;2023-04-25T11:46:59;98471.53;;;11.27;39.95
18988;BME280;5494;51.796;10.952;2023-04-25T11:49:30;98468.06;;;11.55;39.49
18988;BME280;5494;51.796;10.952;2023-04-25T11:51:58;98480.41;;;11.80;39.70
18988;BME280;5494;51.796;10.952;2023-04-25T11:54:26;98470.22;;;11.90;39.93
18988;BME280;5494;51.796;10.952;2023-04-25T11:56:54;98480.47;;;11.93;39.23
18988;BME280;5494;51.796;10.952;2023-04-25T11:59:24;98492.91;;;11.75;39.17
18988;BME280;5494;51.796;10.952;2023-04-25T12:01:53;98486.16;;;11.85;38.97
18988;BME280;5494;51.796;10.952;2023-04-25T12:04:24;98471.78;;;11.65;38.61
18988;BME280;5494;51.796;10.952;2023-04-25T12:06:55;98481.00;;;11.57;38.57
18988;BME280;5494;51.796;10.952;2023-04-25T12:09:29;98473.38;;;11.68;39.01
18988;BME280;5494;51.796;10.952;2023-04-25T12:12:00;98474.75;;;11.73;38.40
18988;BME280;5494;51.796;10.952;2023-04-25T12:14:32;98473.72;;;11.76;37.16
18988;BME280;5494;51.796;10.952;2023-04-25T12:17:02;98479.19;;;11.71;37.29
18988;BME280;5494;51.796;10.952;2023-04-25T12:19:37;98487.53;;;11.91;37.89
18988;BME280;5494;51.796;10.952;2023-04-25T12:22:20;98494.59;;;12.03;37.86
18988;BME280;5494;51.796;10.952;2023-04-25T12:24:49;98481.94;;;11.97;37.04
18988;BME280;5494;51.796;10.952;2023-04-25T12:27:17;98490.94;;;11.78;37.42
18988;BME280;5494;51.796;10.952;2023-04-25T12:29:52;98484.41;;;11.86;37.58
18988;BME280;5494;51.796;10.952;2023-04-25T12:32:20;98483.31;;;12.02;37.77
18988;BME280;5494;51.796;10.952;2023-04-25T12:34:50;98482.22;;;11.92;36.98
18988;BME280;5494;51.796;10.952;2023-04-25T12:37:18;98485.94;;;12.02;37.01
18988;BME280;5494;51.796;10.952;2023-04-25T12:39:45;98493.28;;;12.22;36.80
18988;BME280;5494;51.796;10.952;2023-04-25T12:42:13;98483.50;;;12.39;36.29
18988;BME280;5494;51.796;10.952;2023-04-25T12:44:42;98499.47;;;12.34;36.38
18988;BME280;5494;51.796;10.952;2023-04-25T12:47:10;98492.94;;;12.14;37.18
18988;BME280;5494;51.796;10.952;2023-04-25T12:49:38;98496.78;;;12.09;37.54
18988;BME280;5494;51.796;10.952;2023-04-25T12:52:07;98492.69;;;12.05;37.93
18988;BME280;5494;51.796;10.952;2023-04-25T12:54:35;98495.13;;;12.08;38.42
18988;BME280;5494;51.796;10.952;2023-04-25T12:57:03;98504.44;;;11.98;38.75
18988;BME280;5494;51.796;10.952;2023-04-25T12:59:31;98509.69;;;12.10;37.84
18988;BME280;5494;51.796;10.952;2023-04-25T13:01:59;98494.19;;;12.09;37.95
18988;BME280;5494;51.796;10.952;2023-04-25T13:04:27;98503.69;;;12.10;38.17
18988;BME280;5494;51.796;10.952;2023-04-25T13:06:55;98502.31;;;12.17;38.69
18988;BME280;5494;51.796;10.952;2023-04-25T13:09:25;98504.69;;;12.07;39.12
18988;BME280;5494;51.796;10.952;2023-04-25T13:11:53;98512.06;;;12.01;40.16
18988;BME280;5494;51.796;10.952;2023-04-25T13:14:24;98503.19;;;11.76;40.75
18988;BME280;5494;51.796;10.952;2023-04-25T13:16:52;98522.19;;;11.36;41.35
18988;BME280;5494;51.796;10.952;2023-04-25T13:19:21;98515.31;;;11.06;41.89
18988;BME280;5494;51.796;10.952;2023-04-25T13:21:49;98526.38;;;10.96;43.17
18988;BME280;5494;51.796;10.952;2023-04-25T13:24:17;98535.94;;;10.95;43.73
18988;BME280;5494;51.796;10.952;2023-04-25T13:26:46;98531.94;;;10.90;44.64
18988;BME280;5494;51.796;10.952;2023-04-25T13:29:15;98542.25;;;10.91;45.41
18988;BME280;5494;51.796;10.952;2023-04-25T13:31:42;98541.06;;;10.97;45.65
18988;BME280;5494;51.796;10.952;2023-04-25T13:34:10;98539.44;;;10.80;46.22
18988;BME280;5494;51.796;10.952;2023-04-25T13:36:39;98543.13;;;10.62;46.95
18988;BME280;5494;51.796;10.952;2023-04-25T13:39:07;98547.94;;;10.68;46.70
18988;BME280;5494;51.796;10.952;2023-04-25T13:41:35;98544.19;;;10.58;46.82
18988;BME280;5494;51.796;10.952;2023-04-25T13:44:05;98546.28;;;10.67;47.14
18988;BME280;5494;51.796;10.952;2023-04-25T13:46:33;98555.78;;;10.82;47.05
18988;BME280;5494;51.796;10.952;2023-04-25T13:49:13;98551.56;;;11.10;47.04
18988;BME280;5494;51.796;10.952;2023-04-25T13:51:41;98549.06;;;11.36;45.63
18988;BME280;5494;51.796;10.952;2023-04-25T13:54:09;98559.56;;;11.35;44.76
18988;BME280;5494;51.796;10.952;2023-04-25T13:56:37;98555.56;;;11.29;45.60
18988;BME280;5494;51.796;10.952;2023-04-25T13:59:10;98551.19;;;11.16;45.79
18988;BME280;5494;51.796;10.952;2023-04-25T14:01:38;98564.13;;;11.17;47.11
18988;BME280;5494;51.796;10.952;2023-04-25T14:04:06;98557.78;;;11.07;46.97
18988;BME280;5494;51.796;10.952;2023-04-25T14:06:34;98563.63;;;10.96;48.13
18988;BME280;5494;51.796;10.952;2023-04-25T14:09:03;98562.22;;;10.61;49.30
18988;BME280;5494;51.796;10.952;2023-04-25T14:11:33;98570.03;;;10.61;49.87
18988;BME280;5494;51.796;10.952;2023-04-25T14:14:01;98581.78;;;10.52;49.96
18988;BME280;5494;51.796;10.952;2023-04-25T14:16:31;98572.09;;;10.40;51.02
18988;BME280;5494;51.796;10.952;2023-04-25T14:18:59;98574.63;;;10.26;50.69
18988;BME280;5494;51.796;10.952;2023-04-25T14:21:27;98572.44;;;10.34;51.06
18988;BME280;5494;51.796;10.952;2023-04-25T14:23:55;98577.78;;;10.47;50.64
18988;BME280;5494;51.796;10.952;2023-04-25T14:26:23;98570.03;;;10.61;50.34